Dumas, TX

1:07 PM CDT on March 28, 2017 (GMT -0500)
Moore County

Weather History for KDUX - January, 2013

Change the Weather History Date:

Tuesday, January 29, 2013

  Actual Average (KDHT) Record (KDHT)
Temperature  
Mean Temperature 38 °F -  
Max Temperature 50 °F 47 °F 75 °F (1971)
Min Temperature 26 °F 21 °F -3 °F (1951)
Degree Days  
Heating Degree Days 27    
Moisture  
Dew Point 28 °F    
Average Humidity 75    
Maximum Humidity 100    
Minimum Humidity 40    
Precipitation  
Precipitation 0.00 in - - ()
Sea Level Pressure  
Sea Level Pressure 29.65 in    
Wind  
Wind Speed 14 mph (NW)    
Max Wind Speed 31 mph    
Max Gust Speed 41 mph    
Visibility 9 miles    
Events Fog , Snow    
Averages and records for this station are not official NWS values.
T = Trace of Precipitation, MM = Missing Value Source: NWS Daily Summary

Daily Weather History Graph

Daily Weather History Graph

Search for Another Location

Airport or City:

Trip Planner

Search our weather history database for the weather conditions in past years. The results will help you decide how hot, cold, wet, or windy it might be!

Date:

Astronomy

Jan. 29, 2013 Rise Set
Actual Time 7:50 AM CST 6:12 PM CST
Civil Twilight 7:23 AM CST 6:39 PM CST
Nautical Twilight 6:52 AM CST 7:10 PM CST
Astronomical Twilight 6:22 AM CST 7:40 PM CST
Moon 9:02 PM CST (1/29) 8:55 AM CST (1/29)
Length of Visible Light 11h 16m
Length of Day
10h 22m
Waning Gibbous, 93% of the Moon is Illuminated
Jan 29
Waning Gibbous
Feb 3
Last Quarter
Feb 10
New
Feb 17
First Quarter
Feb 25
Full

Hourly Weather History & Observations

Time (CST) Temp. Windchill Dew Point Humidity Pressure Visibility Wind Dir Wind Speed Gust Speed Precip Events Conditions
12:15 AM 50.0 °F - 26.6 °F 40% 29.71 in 10.0 mi WSW 15.0 mph - N/A   Clear
12:35 AM 50.0 °F - 26.6 °F 40% 29.70 in 10.0 mi WSW 17.3 mph - N/A   Clear
12:55 AM 50.0 °F - 28.4 °F 43% 29.69 in 10.0 mi WSW 15.0 mph - N/A   Clear
1:15 AM 48.2 °F - 28.4 °F 46% 29.68 in 10.0 mi WSW 16.1 mph - N/A   Clear
1:35 AM 48.2 °F - 28.4 °F 46% 29.68 in 10.0 mi WSW 16.1 mph - N/A   Clear
1:55 AM 46.4 °F 40.7 °F 28.4 °F 50% 29.67 in 10.0 mi WSW 12.7 mph - N/A   Clear
2:15 AM 44.6 °F 39.2 °F 28.4 °F 53% 29.67 in 10.0 mi SW 10.4 mph - N/A   Clear
2:35 AM 42.8 °F 36.6 °F 28.4 °F 57% 29.67 in 10.0 mi WSW 11.5 mph - N/A   Clear
2:55 AM 42.8 °F 37.0 °F 28.4 °F 57% 29.68 in 10.0 mi SW 10.4 mph - N/A   Clear
3:15 AM 42.8 °F 36.6 °F 30.2 °F 61% 29.69 in 10.0 mi SSW 11.5 mph - N/A   Clear
3:35 AM 44.6 °F 38.8 °F 30.2 °F 57% 29.69 in 10.0 mi South 11.5 mph - N/A   Clear
3:55 AM 46.4 °F 40.7 °F 30.2 °F 53% 29.69 in 10.0 mi South 12.7 mph - N/A   Clear
4:15 AM 46.4 °F 40.7 °F 32.0 °F 57% 29.67 in 10.0 mi SSW 12.7 mph - N/A   Clear
4:35 AM 44.6 °F 38.1 °F 30.2 °F 57% 29.67 in 10.0 mi SSW 13.8 mph - N/A   Clear
4:55 AM 42.8 °F 36.6 °F 30.2 °F 61% 29.66 in 10.0 mi SW 11.5 mph - N/A   Clear
5:15 AM 42.8 °F 36.2 °F 30.2 °F 61% 29.65 in 10.0 mi SSW 12.7 mph - N/A   Clear
5:35 AM 42.8 °F 36.2 °F 32.0 °F 66% 29.64 in 10.0 mi SW 12.7 mph - N/A   Clear
5:55 AM 41.0 °F 34.3 °F 32.0 °F 70% 29.64 in 10.0 mi SW 11.5 mph - N/A   Clear
6:15 AM 41.0 °F 33.5 °F 32.0 °F 70% 29.64 in 10.0 mi WSW 13.8 mph - N/A   Clear
6:35 AM 39.2 °F 32.0 °F 32.0 °F 75% 29.64 in 10.0 mi SW 11.5 mph - N/A   Clear
6:55 AM 39.2 °F 31.6 °F 32.0 °F 75% 29.64 in 10.0 mi SW 12.7 mph - N/A   Clear
7:15 AM 37.4 °F 30.3 °F 32.0 °F 81% 29.64 in 10.0 mi SW 10.4 mph - N/A   Clear
7:35 AM 35.6 °F 28.0 °F 30.2 °F 81% 29.63 in 10.0 mi SW 10.4 mph - N/A   Clear
7:55 AM 35.6 °F 28.0 °F 30.2 °F 81% 29.63 in 10.0 mi SW 10.4 mph - N/A   Clear
8:15 AM 33.8 °F 27.0 °F 30.2 °F 87% 29.65 in 10.0 mi NW 8.1 mph - N/A   Clear
8:35 AM 35.6 °F 28.0 °F 28.4 °F 75% 29.63 in 10.0 mi NW 10.4 mph - N/A   Clear
8:55 AM 35.6 °F 29.2 °F 28.4 °F 75% 29.62 in 10.0 mi NW 8.1 mph - N/A   Clear
9:15 AM 32.0 °F 24.8 °F 30.2 °F 93% 29.63 in 3.0 mi North 8.1 mph - N/A   Scattered Clouds
9:35 AM 32.0 °F 24.8 °F 32.0 °F 100% 29.63 in 0.2 mi North 8.1 mph - N/A Fog Light Freezing Fog
9:55 AM 32.0 °F 24.8 °F 32.0 °F 100% 29.62 in 0.5 mi NNE 8.1 mph - N/A Fog Fog
10:15 AM 33.8 °F 27.0 °F 32.0 °F 93% 29.61 in 1.5 mi ENE 8.1 mph - N/A   Overcast
10:35 AM 33.8 °F 27.7 °F 32.0 °F 93% 29.60 in 4.0 mi ENE 6.9 mph - N/A   Overcast
10:55 AM 35.6 °F 32.8 °F 32.0 °F 87% 29.60 in 5.0 mi NE 3.5 mph - N/A   Mostly Cloudy
11:15 AM 37.4 °F 34.9 °F 32.0 °F 81% 29.61 in 7.0 mi NNW 3.5 mph - N/A   Scattered Clouds
11:35 AM 39.2 °F 35.9 °F 32.0 °F 75% 29.60 in 10.0 mi North 4.6 mph - N/A   Clear
11:55 AM 39.2 °F 37.0 °F 32.0 °F 75% 29.60 in 10.0 mi ENE 3.5 mph - N/A   Clear
12:15 PM 41.0 °F 38.0 °F 30.2 °F 65% 29.60 in 10.0 mi West 4.6 mph - N/A   Clear
12:35 PM 42.8 °F 39.3 °F 30.2 °F 61% 29.58 in 10.0 mi NW 5.8 mph - N/A   Clear
12:55 PM 41.0 °F 33.1 °F 32.0 °F 70% 29.57 in 10.0 mi NNE 15.0 mph - N/A   Scattered Clouds
1:15 PM 41.0 °F 33.1 °F 32.0 °F 70% 29.56 in 10.0 mi North 15.0 mph - N/A   Scattered Clouds
1:35 PM 41.0 °F 33.9 °F 32.0 °F 70% 29.55 in 10.0 mi NNE 12.7 mph - N/A   Scattered Clouds
1:55 PM 41.0 °F 33.5 °F 32.0 °F 70% 29.54 in 10.0 mi North 13.8 mph 19.6 mph N/A   Mostly Cloudy
2:15 PM 37.4 °F 29.3 °F 32.0 °F 81% 29.55 in 10.0 mi North 12.7 mph - N/A   Overcast
2:35 PM 35.6 °F 25.5 °F 32.0 °F 87% 29.53 in 10.0 mi NNE 17.3 mph 21.9 mph N/A   Overcast
2:55 PM 35.6 °F 26.2 °F 30.2 °F 81% 29.53 in 10.0 mi North 15.0 mph 24.2 mph N/A   Overcast
3:15 PM 35.6 °F 24.0 °F 30.2 °F 81% 29.53 in 10.0 mi North 23.0 mph 27.6 mph N/A   Overcast
3:35 PM 35.6 °F 24.8 °F 30.2 °F 81% 29.54 in 10.0 mi North 19.6 mph 25.3 mph N/A   Overcast
3:55 PM 33.8 °F 21.3 °F 28.4 °F 81% 29.55 in 10.0 mi North 24.2 mph 27.6 mph N/A   Overcast
4:15 PM 33.8 °F 22.5 °F 28.4 °F 81% 29.57 in 10.0 mi North 19.6 mph 26.5 mph N/A   Overcast
4:35 PM 33.8 °F 21.6 °F 28.4 °F 81% 29.58 in 10.0 mi North 23.0 mph 27.6 mph N/A   Overcast
4:55 PM 32.0 °F 18.4 °F 28.4 °F 87% 29.60 in 10.0 mi North 26.5 mph 35.7 mph N/A   Overcast
5:15 PM 32.0 °F 18.1 °F 28.4 °F 87% 29.59 in 3.0 mi North 27.6 mph 40.3 mph N/A   Overcast
5:35 PM 30.2 °F 15.4 °F 28.4 °F 93% 29.62 in 4.0 mi North 28.8 mph 38.0 mph N/A Snow Light Snow
5:55 PM 30.2 °F 15.2 °F 28.4 °F 93% 29.62 in 3.0 mi North 29.9 mph 38.0 mph N/A Snow Light Snow
6:15 PM 30.2 °F 14.9 °F 28.4 °F 93% 29.66 in 1.2 mi North 31.1 mph 41.4 mph N/A Snow Light Snow
6:35 PM 28.4 °F 13.0 °F 28.4 °F 100% 29.67 in 0.8 mi North 28.8 mph 35.7 mph N/A Snow Snow
6:55 PM 28.4 °F 14.7 °F 26.6 °F 93% 29.69 in 1.8 mi North 21.9 mph 35.7 mph N/A Snow Light Snow
7:15 PM 28.4 °F 14.4 °F 24.8 °F 86% 29.69 in 10.0 mi North 23.0 mph 34.5 mph N/A   Mostly Cloudy
7:35 PM 28.4 °F 14.4 °F 24.8 °F 86% 29.70 in 10.0 mi North 23.0 mph 33.4 mph N/A   Scattered Clouds
7:55 PM 28.4 °F 13.5 °F 23.0 °F 80% 29.71 in 10.0 mi North 26.5 mph - N/A   Clear
8:15 PM 28.4 °F 13.5 °F 23.0 °F 80% 29.71 in 10.0 mi North 26.5 mph 31.1 mph N/A   Clear
8:35 PM 28.4 °F 15.4 °F 23.0 °F 80% 29.72 in 10.0 mi North 19.6 mph - N/A   Clear
8:55 PM 28.4 °F 15.8 °F 23.0 °F 80% 29.73 in 10.0 mi NNW 18.4 mph 27.6 mph N/A   Clear
9:15 PM 26.6 °F 13.8 °F 21.2 °F 80% 29.75 in 10.0 mi NNW 17.3 mph 23.0 mph N/A   Clear
9:35 PM 26.6 °F 14.3 °F 21.2 °F 80% 29.76 in 10.0 mi NNW 16.1 mph 20.7 mph N/A   Clear
9:55 PM 26.6 °F 15.7 °F 21.2 °F 80% 29.77 in 10.0 mi NNW 12.7 mph - N/A   Clear
10:15 PM 26.6 °F 16.2 °F 21.2 °F 80% 29.78 in 10.0 mi NW 11.5 mph - N/A   Clear
10:35 PM 26.6 °F 15.2 °F 21.2 °F 80% 29.79 in 10.0 mi NW 13.8 mph - N/A   Clear
10:55 PM 26.6 °F 15.7 °F 21.2 °F 80% 29.81 in 10.0 mi WNW 12.7 mph - N/A   Clear
11:15 PM 26.6 °F 15.7 °F 21.2 °F 80% 29.82 in 10.0 mi WNW 12.7 mph - N/A   Clear
11:35 PM 26.6 °F 15.2 °F 19.4 °F 74% 29.83 in 10.0 mi NW 13.8 mph - N/A   Clear
11:55 PM 26.6 °F 15.2 °F 19.4 °F 74% 29.83 in 10.0 mi NW 13.8 mph - N/A   Clear